Time;durP1;ratioP1;P1;durP2;ratioP2;P2;SDS_P1;SDS_P2;PMS_P1;PMS_P2;Temp;Humidity;BMP_temperature;BMP_pressure;BME280_temperature;BME280_humidity;BME280_pressure;Samples;Min_cycle;Max_cycle;Signal;HPM_P1;HPM_P2
2021/12/17 00:00:27;;;;;;;4.65;2.80;;;15.90;87.10;;;;;;4188396;28;20062;-59
2021/12/17 00:03:10;;;;;;;3.28;2.85;;;15.90;87.20;;;;;;4185088;28;20127;-58
2021/12/17 00:05:52;;;;;;;4.70;2.60;;;15.90;87.20;;;;;;4176453;28;20454;-58
2021/12/17 00:08:15;;;;;;;3.58;2.58;;;15.90;87.20;;;;;;4179559;28;20492;-59
2021/12/17 00:10:37;;;;;;;3.58;3.03;;;15.90;87.30;;;;;;4186725;28;20072;-59
2021/12/17 00:13:00;;;;;;;7.97;2.50;;;15.90;87.30;;;;;;4183023;28;20086;-59
2021/12/17 00:15:22;;;;;;;3.13;2.80;;;15.90;87.40;;;;;;4176626;28;20516;-59
2021/12/17 00:17:53;;;;;;;3.35;2.65;;;15.90;87.40;;;;;;4176507;28;20413;-60
2021/12/17 00:50:01;;;;;;;7.88;5.38;;;15.70;88.20;;;;;;4183385;28;20076;-58
2021/12/17 00:52:27;;;;;;;8.10;5.22;;;15.70;88.20;;;;;;4190783;28;20407;-59
2021/12/17 00:54:51;;;;;;;6.78;4.85;;;15.70;88.30;;;;;;4192407;28;20098;-59
2021/12/17 00:57:18;;;;;;;7.25;4.90;;;15.70;88.20;;;;;;4176019;28;20045;-59
2021/12/17 00:59:41;;;;;;;6.65;4.63;;;15.70;88.20;;;;;;4183890;28;20056;-59
2021/12/17 01:02:07;;;;;;;8.80;5.13;;;15.70;88.30;;;;;;4186357;28;20048;-59
2021/12/17 01:04:29;;;;;;;8.18;5.45;;;15.70;88.20;;;;;;4191200;28;20056;-59
2021/12/17 01:06:51;;;;;;;10.27;5.82;;;15.70;88.30;;;;;;4175929;28;20473;-59
2021/12/17 01:09:16;;;;;;;8.35;6.43;;;15.70;89.10;;;;;;4175837;28;20040;-59
2021/12/17 01:11:40;;;;;;;8.20;6.47;;;15.70;88.20;;;;;;4174463;28;20493;-59
2021/12/17 01:14:31;;;;;;;11.55;6.60;;;15.60;88.00;;;;;;4174096;28;20068;-59
2021/12/17 01:17:12;;;;;;;12.40;7.53;;;15.60;88.30;;;;;;4174031;28;20049;-59
2021/12/17 01:20:27;;;;;;;11.15;6.88;;;15.60;89.20;;;;;;4182254;28;20103;-59
2021/12/17 01:23:04;;;;;;;9.90;6.35;;;15.60;88.50;;;;;;4173595;28;20044;-59
2021/12/17 01:43:22;;;;;;;5.18;4.07;;;15.60;88.70;;;;;;4180788;28;20036;-58
2021/12/17 01:45:45;;;;;;;9.88;4.53;;;15.60;88.90;;;;;;4190472;28;20060;-60
2021/12/17 01:48:13;;;;;;;4.38;3.60;;;15.60;88.70;;;;;;4190070;28;20575;-59
2021/12/17 01:56:15;;;;;;;4.22;3.25;;;15.70;89.40;;;;;;4191730;28;20095;-58
2021/12/17 02:01:19;;;;;;;4.60;2.80;;;15.90;88.60;;;;;;4173754;28;20076;-58
2021/12/17 02:03:43;;;;;;;4.80;3.03;;;16.00;88.40;;;;;;4173838;28;20482;-58
2021/12/17 02:06:05;;;;;;;2.55;2.42;;;16.00;88.00;;;;;;4175272;28;20122;-58
2021/12/17 02:08:27;;;;;;;3.53;2.28;;;16.00;87.80;;;;;;4175133;28;20067;-59
2021/12/17 02:19:42;;;;;;;2.10;1.90;;;16.00;87.60;;;;;;4167565;28;20048;-59
2021/12/17 02:22:58;;;;;;;2.22;2.13;;;16.10;87.60;;;;;;4218143;28;20035;-58
2021/12/17 02:30:56;;;;;;;3.05;2.10;;;16.00;88.50;;;;;;4189313;28;20150;-58
2021/12/17 02:33:20;;;;;;;5.32;3.00;;;16.00;87.70;;;;;;4173441;28;20052;-59
2021/12/17 02:35:44;;;;;;;2.67;2.40;;;15.90;87.70;;;;;;4176574;28;20037;-59
2021/12/17 02:38:10;;;;;;;2.75;2.55;;;15.90;87.60;;;;;;4178013;28;20492;-59
2021/12/17 02:46:52;;;;;;;3.85;3.33;;;15.90;87.70;;;;;;4094692;29;20050;-59
2021/12/17 02:49:15;;;;;;;4.07;3.35;;;15.90;87.70;;;;;;4164337;28;20492;-57
2021/12/17 02:51:37;;;;;;;3.20;2.78;;;15.90;87.60;;;;;;4177538;28;20045;-59
2021/12/17 02:54:00;;;;;;;3.20;2.90;;;15.80;87.40;;;;;;4176665;28;20087;-59
2021/12/17 02:56:22;;;;;;;2.60;2.40;;;15.80;87.40;;;;;;4185054;28;20052;-58
2021/12/17 02:58:45;;;;;;;6.70;3.28;;;15.80;87.40;;;;;;4177836;28;20048;-57
2021/12/17 03:01:11;;;;;;;3.75;3.35;;;15.80;87.30;;;;;;4182886;28;20048;-59
2021/12/17 03:03:34;;;;;;;2.65;2.45;;;15.70;87.30;;;;;;4194360;28;20435;-58
2021/12/17 03:05:55;;;;;;;3.42;2.83;;;15.70;87.30;;;;;;4192940;28;20052;-58
2021/12/17 03:08:18;;;;;;;5.20;2.85;;;15.70;88.00;;;;;;4191454;28;20487;-58
2021/12/17 03:10:42;;;;;;;2.80;2.60;;;15.80;88.70;;;;;;4184726;28;20076;-58
2021/12/17 03:13:04;;;;;;;2.60;2.40;;;15.80;88.60;;;;;;4192637;28;20461;-59
2021/12/17 03:15:34;;;;;;;2.97;2.67;;;16.00;88.20;;;;;;4194348;28;20071;-59
2021/12/17 03:18:32;;;;;;;2.65;2.45;;;16.00;87.60;;;;;;4193784;28;20044;-59
2021/12/17 03:23:39;;;;;;;2.88;2.67;;;16.10;87.30;;;;;;4182529;28;20132;-59
2021/12/17 03:26:07;;;;;;;3.70;2.00;;;16.10;87.00;;;;;;4191922;28;20094;-59
2021/12/17 03:28:30;;;;;;;2.17;2.08;;;16.10;86.90;;;;;;4193731;28;20109;-59
2021/12/17 03:30:53;;;;;;;2.67;2.47;;;16.20;86.90;;;;;;4192429;28;20098;-59
2021/12/17 03:33:16;;;;;;;2.72;2.53;;;16.10;86.70;;;;;;4176056;28;20056;-59
2021/12/17 03:35:38;;;;;;;2.92;2.60;;;16.10;86.90;;;;;;4175197;28;20060;-58
2021/12/17 03:38:00;;;;;;;3.67;2.40;;;16.10;86.70;;;;;;4187104;28;20036;-58
2021/12/17 03:40:23;;;;;;;3.58;2.42;;;16.10;86.80;;;;;;4188198;28;20044;-58
2021/12/17 03:42:49;;;;;;;2.28;2.17;;;16.10;86.90;;;;;;4176107;28;20053;-58
2021/12/17 03:45:13;;;;;;;2.60;2.40;;;16.00;87.00;;;;;;4175843;28;20065;-58
2021/12/17 03:47:45;;;;;;;2.92;2.67;;;16.00;87.30;;;;;;4176890;28;20651;-58
2021/12/17 03:50:13;;;;;;;2.13;2.00;;;16.00;87.30;;;;;;4176168;28;20052;-58
2021/12/17 03:52:35;;;;;;;2.85;2.40;;;16.10;87.20;;;;;;4183768;28;20049;-58
2021/12/17 03:54:58;;;;;;;3.70;3.08;;;16.10;87.00;;;;;;4192458;28;20040;-58
2021/12/17 03:57:22;;;;;;;2.63;2.42;;;16.10;86.90;;;;;;4192037;28;20044;-58
2021/12/17 03:59:48;;;;;;;2.83;2.63;;;16.10;86.70;;;;;;4192493;28;20049;-59
2021/12/17 04:02:15;;;;;;;2.83;2.63;;;16.10;86.60;;;;;;4192132;28;20044;-58
2021/12/17 04:04:37;;;;;;;5.20;2.97;;;16.10;86.70;;;;;;4186827;28;20114;-59
2021/12/17 04:07:28;;;;;;;3.53;2.65;;;16.10;86.70;;;;;;4176382;28;20060;-59
2021/12/17 04:10:17;;;;;;;2.83;2.33;;;16.10;86.80;;;;;;4176586;28;20246;-58
2021/12/17 04:12:51;;;;;;;2.13;1.80;;;16.10;86.90;;;;;;4174786;28;20048;-58
2021/12/17 04:15:15;;;;;;;3.85;2.30;;;16.10;87.00;;;;;;4173859;28;20470;-58
2021/12/17 04:17:43;;;;;;;3.45;2.10;;;16.00;87.10;;;;;;4175503;28;20083;-59
2021/12/17 04:20:07;;;;;;;3.20;2.00;;;16.00;87.10;;;;;;4174376;28;20060;-58
2021/12/17 04:22:29;;;;;;;1.95;1.85;;;16.00;87.10;;;;;;4175917;28;20053;-59
2021/12/17 04:24:51;;;;;;;1.98;1.88;;;16.00;87.20;;;;;;4175776;28;20394;-58
2021/12/17 04:27:13;;;;;;;1.80;1.70;;;16.10;87.50;;;;;;4175025;28;20622;-58
2021/12/17 04:29:43;;;;;;;1.90;1.80;;;16.20;87.20;;;;;;4190528;28;20140;-58
2021/12/17 04:32:08;;;;;;;1.70;1.60;;;16.20;86.70;;;;;;4186950;28;20053;-59
2021/12/17 04:34:31;;;;;;;2.03;1.70;;;16.30;86.30;;;;;;4174958;28;20111;-59
2021/12/17 04:36:56;;;;;;;2.45;1.55;;;16.40;86.00;;;;;;4174967;28;20479;-57
2021/12/17 04:39:36;;;;;;;2.05;1.85;;;16.40;85.80;;;;;;4187594;28;20462;-58
2021/12/17 04:42:02;;;;;;;3.17;1.67;;;16.40;85.70;;;;;;4175119;28;20186;-58
2021/12/17 04:44:27;;;;;;;2.47;2.28;;;16.40;85.70;;;;;;4174936;28;20044;-58
2021/12/17 04:46:59;;;;;;;1.95;1.85;;;16.40;85.90;;;;;;4187084;28;20044;-58
2021/12/17 04:57:31;;;;;;;2.22;2.03;;;16.40;85.60;;;;;;4176558;28;20056;-58
2021/12/17 04:59:53;;;;;;;1.77;1.67;;;16.40;85.60;;;;;;4174760;28;20476;-59
2021/12/17 05:02:16;;;;;;;2.03;1.75;;;16.40;85.70;;;;;;4174535;28;20045;-58
2021/12/17 05:04:51;;;;;;;1.90;1.80;;;16.30;85.60;;;;;;4174289;28;20045;-59
2021/12/17 05:07:14;;;;;;;2.08;1.98;;;16.30;85.60;;;;;;4179613;28;20064;-58
2021/12/17 05:09:47;;;;;;;2.13;2.03;;;16.30;85.90;;;;;;4190893;28;20131;-58
2021/12/17 05:20:26;;;;;;;2.65;2.45;;;16.50;85.60;;;;;;4175676;28;20045;-58
2021/12/17 05:22:54;;;;;;;2.55;2.40;;;16.50;85.50;;;;;;4175518;28;20049;-58
2021/12/17 05:25:17;;;;;;;2.72;2.53;;;16.50;85.30;;;;;;4178213;28;20055;-59
2021/12/17 05:27:40;;;;;;;2.40;2.30;;;16.50;85.30;;;;;;4190643;28;20060;-57
2021/12/17 05:30:02;;;;;;;2.63;2.42;;;16.50;85.20;;;;;;4178019;28;20195;-58
2021/12/17 05:32:25;;;;;;;2.85;2.65;;;16.50;85.20;;;;;;4174029;28;20060;-57
2021/12/17 05:34:53;;;;;;;2.83;2.63;;;16.40;85.20;;;;;;4173707;28;20099;-58
2021/12/17 05:37:16;;;;;;;2.30;2.20;;;16.40;85.40;;;;;;4176921;28;20055;-57
2021/12/17 05:39:38;;;;;;;2.90;2.70;;;16.40;85.50;;;;;;4189835;28;20135;-58
2021/12/17 05:42:03;;;;;;;3.20;2.90;;;16.30;85.60;;;;;;4177887;28;20052;-57
2021/12/17 05:45:06;;;;;;;2.40;2.20;;;16.30;85.80;;;;;;4172107;28;20052;-57
2021/12/17 05:47:29;;;;;;;;;;;16.20;85.90;;;;;;4187335;28;20138;-58
2021/12/17 05:49:50;;;;;;;2.72;2.53;;;16.20;86.10;;;;;;4189649;28;19920;-58
2021/12/17 05:52:13;;;;;;;3.35;2.60;;;16.20;86.50;;;;;;4189809;28;20068;-58
2021/12/17 05:54:36;;;;;;;2.03;1.83;;;16.10;86.30;;;;;;4189944;28;20105;-58
2021/12/17 05:56:59;;;;;;;2.65;2.10;;;16.10;86.60;;;;;;4185422;28;20684;-58
2021/12/17 05:59:32;;;;;;;2.65;2.45;;;16.10;87.10;;;;;;4181017;28;20067;-58
2021/12/17 06:01:55;;;;;;;2.85;2.65;;;16.20;87.00;;;;;;4190095;28;20487;-58
2021/12/17 06:04:18;;;;;;;2.85;2.65;;;16.20;86.60;;;;;;4190279;28;20539;-58
2021/12/17 06:06:51;;;;;;;3.08;2.85;;;16.30;86.20;;;;;;4189666;28;20052;-57
2021/12/17 06:09:14;;;;;;;3.10;2.47;;;16.40;85.90;;;;;;4183809;28;20045;-58
2021/12/17 06:11:39;;;;;;;3.90;3.13;;;16.50;85.70;;;;;;4187313;28;20139;-57
2021/12/17 06:14:08;;;;;;;2.45;2.35;;;16.50;85.40;;;;;;4176681;28;20068;-58
2021/12/17 06:16:33;;;;;;;3.70;3.40;;;16.50;85.30;;;;;;4178390;28;20141;-58
2021/12/17 06:19:01;;;;;;;3.10;2.90;;;16.50;85.10;;;;;;4186265;28;20126;-58
2021/12/17 06:21:23;;;;;;;3.58;3.28;;;16.50;85.10;;;;;;4178519;28;20461;-57
2021/12/17 06:23:45;;;;;;;3.08;2.88;;;16.50;85.90;;;;;;4178355;28;20055;-58
2021/12/17 06:26:08;;;;;;;4.18;3.40;;;16.50;85.10;;;;;;4175502;28;20051;-58
2021/12/17 06:28:34;;;;;;;4.13;3.72;;;16.50;86.00;;;;;;4176681;28;20098;-57
2021/12/17 06:30:57;;;;;;;6.85;3.83;;;16.40;85.10;;;;;;4183167;28;20094;-58
2021/12/17 06:33:23;;;;;;;4.30;3.58;;;16.40;85.20;;;;;;4191925;28;20040;-58
2021/12/17 06:35:46;;;;;;;4.88;3.80;;;16.40;85.40;;;;;;4193310;28;20052;-58
2021/12/17 06:38:08;;;;;;;4.07;3.67;;;16.30;85.40;;;;;;4176854;28;20053;-57
2021/12/17 06:40:33;;;;;;;5.05;4.00;;;16.30;85.50;;;;;;4176919;28;20119;-58
2021/12/17 06:42:55;;;;;;;5.97;4.15;;;16.30;85.60;;;;;;4183214;28;20068;-58
2021/12/17 06:45:25;;;;;;;5.55;4.53;;;16.20;85.80;;;;;;4193278;28;20672;-58
2021/12/17 06:47:54;;;;;;;5.88;4.35;;;16.20;85.90;;;;;;4192102;28;20076;-61
2021/12/17 06:59:22;;;;;;;5.22;4.32;;;16.50;85.50;;;;;;4165881;28;20060;-60
2021/12/17 07:10:59;;;;;;;5.88;4.90;;;16.50;85.80;;;;;;4189844;27;20390;-62
2021/12/17 07:21:31;;;;;;;7.65;4.90;;;16.60;85.70;;;;;;4205053;27;20052;-62
2021/12/17 07:35:12;;;;;;;7.88;5.70;;;16.50;86.20;;;;;;4170292;28;20041;-62
2021/12/17 07:40:17;;;;;;;6.85;5.63;;;16.40;86.30;;;;;;4170054;28;20056;-61
2021/12/17 07:42:44;;;;;;;8.07;5.97;;;16.40;85.70;;;;;;4170185;28;20049;-61
2021/12/17 07:45:14;;;;;;;7.18;6.13;;;16.30;85.70;;;;;;4171464;28;20045;-61
2021/12/17 07:47:56;;;;;;;6.80;5.15;;;16.30;86.80;;;;;;4172168;28;20049;-61
2021/12/17 07:50:23;;;;;;;8.45;5.57;;;16.20;86.20;;;;;;4171133;28;20132;-61
2021/12/17 07:53:00;;;;;;;7.65;5.72;;;16.20;86.30;;;;;;4170648;28;20045;-61
2021/12/17 07:55:25;;;;;;;9.07;6.10;;;16.10;86.30;;;;;;4171418;28;20120;-61
2021/12/17 07:57:48;;;;;;;7.97;5.80;;;16.10;86.40;;;;;;4171396;28;20119;-61
2021/12/17 08:00:16;;;;;;;9.80;6.72;;;16.10;86.30;;;;;;4154458;28;20049;-61
2021/12/17 08:02:38;;;;;;;9.45;6.28;;;16.00;86.50;;;;;;4156265;28;20046;-61
2021/12/17 08:05:20;;;;;;;9.40;6.88;;;16.00;86.50;;;;;;4157030;28;20057;-61
2021/12/17 08:07:42;;;;;;;9.15;5.78;;;15.90;86.80;;;;;;4165955;28;20073;-60
2021/12/17 08:10:05;;;;;;;10.38;6.43;;;15.90;87.00;;;;;;4159623;28;20646;-61
2021/12/17 08:12:27;;;;;;;10.60;5.38;;;15.90;87.20;;;;;;4162828;28;20048;-61
2021/12/17 08:14:55;;;;;;;10.45;6.45;;;15.90;87.30;;;;;;4159273;28;20378;-61
2021/12/17 08:17:36;;;;;;;9.93;6.28;;;15.90;87.40;;;;;;4160741;28;20057;-60
2021/12/17 08:25:41;;;;;;;10.18;6.50;;;15.80;87.80;;;;;;4165916;28;20054;-61
2021/12/17 08:28:07;;;;;;;11.60;6.72;;;15.80;87.90;;;;;;4167501;28;20516;-60
2021/12/17 08:30:39;;;;;;;7.72;6.13;;;15.80;88.00;;;;;;4163528;28;20501;-61
2021/12/17 08:33:09;;;;;;;10.63;6.38;;;15.90;88.00;;;;;;4172994;28;20049;-61
2021/12/17 08:35:31;;;;;;;11.68;6.47;;;16.00;87.90;;;;;;4169998;28;20048;-61
2021/12/17 08:37:58;;;;;;;10.57;6.47;;;16.10;87.40;;;;;;4165651;28;20112;-60
2021/12/17 08:40:26;;;;;;;10.00;6.60;;;16.20;86.80;;;;;;4158006;28;20140;-61
2021/12/17 08:42:50;;;;;;;11.30;7.30;;;16.30;86.20;;;;;;4161717;28;20048;-61
2021/12/17 08:45:13;;;;;;;9.15;6.47;;;16.40;85.80;;;;;;4164591;28;20472;-61
2021/12/17 08:47:55;;;;;;;;;;;16.40;85.60;;;;;;4164984;28;20053;-61
2021/12/17 08:50:28;;;;;;;9.75;6.88;;;16.40;85.60;;;;;;4166173;28;19920;-61
2021/12/17 08:52:52;;;;;;;9.07;6.07;;;16.40;85.60;;;;;;4165199;28;20045;-61
2021/12/17 08:55:15;;;;;;;12.60;6.85;;;16.40;85.60;;;;;;4167329;28;20053;-61
2021/12/17 08:57:37;;;;;;;9.32;6.32;;;16.40;85.60;;;;;;4165352;28;20045;-61
2021/12/17 09:00:04;;;;;;;8.05;6.28;;;16.30;85.70;;;;;;4163307;28;20041;-61
2021/12/17 09:02:47;;;;;;;9.85;6.85;;;16.30;85.80;;;;;;4164620;28;20057;-61
2021/12/17 09:05:49;;;;;;;10.60;6.77;;;16.20;85.80;;;;;;4149652;28;20110;-61
2021/12/17 09:08:16;;;;;;;9.35;5.72;;;16.20;86.20;;;;;;4146465;28;20142;-61
2021/12/17 09:10:45;;;;;;;10.80;7.22;;;16.10;86.30;;;;;;4146893;28;20418;-61
2021/12/17 09:13:08;;;;;;;14.02;7.00;;;16.10;86.50;;;;;;4169744;28;20132;-61
2021/12/17 09:15:30;;;;;;;9.20;6.50;;;16.10;86.50;;;;;;4195349;28;20080;-61
2021/12/17 09:17:58;;;;;;;11.90;8.18;;;16.00;86.50;;;;;;4169870;28;20052;-61
